ベルファスト/国際 の空港の天気 - METARとTAF

ベルファスト国際空港 ( EGAA / BFS ) - イギリス ベルファスト
飛行場実況気象(Metar)
観測時間07/16 18:20 BST (07/16 17:20 UTC)
風向・風速西南西 5m/s
視程10km以上
天気現象
全天を覆う雲 雲底高度 1190m
気温19℃
湿度73%
気圧1019hPa
METAREGAA 161720Z 24010KT 9999 OVC039 19/14 Q1019
過去の天気等 Google飛行場航空写真 Wunderground天気予報

過去48時間のMETAR

飛行場予報(TAF)
発表時間: 7/16 17:56 BST (7/16 16:56 UTC)
予報対象時間: 16日19時 BST ~ 17日19時 BST
風向・風速南西 5m/s
視程10km以上
少しの雲 雲底高度 760m
全天の4割程度の雲 雲底高度 1370m
16日23時 BST ~ 17日3時 BST に徐々に
全天の8割程度の雲 雲底高度 240m
17日3時 BST ~ 17日16時 BST に一時的に
視程6000m
天気現象雨 弱い雨霧雨
17日3時 BST ~ 17日14時 BST に 確率 30% で一時的に
全天の8割程度の雲 雲底高度 120m
17日12時 BST ~ 17日14時 BST に 確率 30% で一時的に
視程3000m
天気現象雨霧雨
17日14時 BST ~ 17日17時 BST に徐々に
全天の4割程度の雲 雲底高度 430m
全天の8割程度の雲 雲底高度 910m
TAF EGAA 161656Z 1618/1718 23009KT 9999 FEW025 SCT045
BECMG 1622/1702 BKN008
TEMPO 1702/1715 6000 RA -RADZ
PROB30 TEMPO 1702/1713 BKN004
PROB30 TEMPO 1711/1713 3000 RADZ
BECMG 1713/1716 SCT014 BKN030